createdAt,value
2018-11-07T00:00:10.477Z,23.50
2018-11-07T00:02:39.689Z,23.50
2018-11-07T00:05:08.779Z,23.51
2018-11-07T00:07:37.925Z,23.49
2018-11-07T00:10:07.939Z,23.50
2018-11-07T00:12:37.107Z,23.49
2018-11-07T00:15:06.864Z,23.49
2018-11-07T00:17:35.986Z,23.45
2018-11-07T00:20:06.142Z,23.45
2018-11-07T00:22:35.617Z,23.45
2018-11-07T00:25:04.768Z,23.47
2018-11-07T00:27:33.895Z,23.46
2018-11-07T00:30:03.097Z,23.47
2018-11-07T00:32:32.225Z,23.43
2018-11-07T00:35:01.462Z,23.38
2018-11-07T00:37:31.395Z,23.36
2018-11-07T00:40:00.511Z,23.36
2018-11-07T00:42:29.685Z,23.37
2018-11-07T00:44:58.948Z,23.36
2018-11-07T00:47:28.559Z,23.35
2018-11-07T00:49:57.709Z,23.35
2018-11-07T00:52:26.853Z,23.37
2018-11-07T00:54:56.043Z,23.37
2018-11-07T00:57:25.138Z,23.41
2018-11-07T00:59:54.377Z,23.40
2018-11-07T01:02:23.478Z,23.40
2018-11-07T01:04:52.570Z,23.41
2018-11-07T01:07:21.612Z,23.43
2018-11-07T01:09:50.789Z,23.41
2018-11-07T01:12:19.971Z,23.42
2018-11-07T01:14:49.085Z,23.41
2018-11-07T01:17:18.209Z,23.43
2018-11-07T01:19:47.353Z,23.40
2018-11-07T01:22:16.665Z,23.38
2018-11-07T01:24:45.874Z,23.40
2018-11-07T01:27:15.125Z,23.35
2018-11-07T01:29:44.242Z,23.41
2018-11-07T01:32:14.173Z,23.40
2018-11-07T01:34:43.423Z,23.38
2018-11-07T01:37:12.589Z,23.37
2018-11-07T01:39:42.098Z,23.35
2018-11-07T01:42:11.301Z,23.41
2018-11-07T01:44:40.373Z,23.40
2018-11-07T01:47:09.750Z,23.41
2018-11-07T01:49:38.864Z,23.44
2018-11-07T01:52:08.125Z,23.44
2018-11-07T01:54:37.167Z,23.42
2018-11-07T01:57:06.267Z,23.45
2018-11-07T01:59:35.441Z,23.43
2018-11-07T02:02:04.557Z,23.43
2018-11-07T02:04:33.667Z,23.42
2018-11-07T02:07:02.942Z,23.41
2018-11-07T02:09:32.067Z,23.42
2018-11-07T02:12:01.257Z,23.43
2018-11-07T02:14:30.417Z,23.43
2018-11-07T02:16:59.569Z,23.44
2018-11-07T02:19:28.840Z,23.42
2018-11-07T02:21:58.049Z,23.43
2018-11-07T02:24:27.202Z,23.42
2018-11-07T02:26:56.574Z,23.40
2018-11-07T02:29:25.638Z,23.40
2018-11-07T02:31:54.740Z,23.41
2018-11-07T02:34:23.842Z,23.42
2018-11-07T02:36:52.988Z,23.41
2018-11-07T02:39:22.182Z,23.41
2018-11-07T02:41:51.788Z,23.41
2018-11-07T02:44:20.768Z,23.40
2018-11-07T02:46:50.070Z,23.40
2018-11-07T02:49:19.149Z,23.40
2018-11-07T02:51:48.326Z,23.40
2018-11-07T02:54:17.445Z,23.41
2018-11-07T02:56:46.462Z,23.42
2018-11-07T02:59:15.612Z,23.39
2018-11-07T03:01:45.194Z,23.40
2018-11-07T03:04:14.343Z,23.37
2018-11-07T03:06:43.568Z,23.39
2018-11-07T03:09:12.717Z,23.38
2018-11-07T03:11:41.909Z,23.39
2018-11-07T03:14:11.011Z,23.38
2018-11-07T03:16:40.543Z,23.35
2018-11-07T03:19:10.061Z,23.38
2018-11-07T03:21:39.199Z,23.38
2018-11-07T03:24:08.417Z,23.37
2018-11-07T03:26:37.551Z,23.38
2018-11-07T03:29:06.645Z,23.37
2018-11-07T03:31:35.857Z,23.37
2018-11-07T03:34:05.057Z,23.39
2018-11-07T03:36:34.260Z,23.37
2018-11-07T03:39:03.630Z,23.31
2018-11-07T03:41:32.967Z,23.35
2018-11-07T03:44:02.375Z,23.31
2018-11-07T03:46:31.519Z,23.30
2018-11-07T03:49:00.630Z,23.27
2018-11-07T03:51:29.733Z,23.27
2018-11-07T03:53:58.763Z,23.34
2018-11-07T03:56:27.913Z,23.35
2018-11-07T03:58:57.297Z,23.32
2018-11-07T04:01:26.610Z,23.34
2018-11-07T04:03:55.725Z,23.38
2018-11-07T04:06:24.857Z,23.38
2018-11-07T04:08:54.553Z,23.37
2018-11-07T04:11:23.606Z,23.37
2018-11-07T04:13:53.086Z,23.37
2018-11-07T04:16:22.238Z,23.38
2018-11-07T04:18:51.317Z,23.36
2018-11-07T04:21:21.235Z,23.38
2018-11-07T04:23:58.295Z,23.38
2018-11-07T04:26:27.455Z,23.37
2018-11-07T04:28:56.728Z,23.36
2018-11-07T04:31:25.913Z,23.36
2018-11-07T04:33:55.434Z,23.34
2018-11-07T04:36:25.091Z,23.35
2018-11-07T04:38:54.923Z,23.35
2018-11-07T04:41:24.438Z,23.33
2018-11-07T04:43:53.889Z,23.34
2018-11-07T04:46:23.030Z,23.30
2018-11-07T04:48:52.995Z,23.32
2018-11-07T04:51:22.481Z,23.32
2018-11-07T04:53:51.587Z,23.32
2018-11-07T04:56:20.681Z,23.32
2018-11-07T04:58:49.798Z,23.32
2018-11-07T05:01:18.896Z,23.32
2018-11-07T05:03:48.593Z,23.32
2018-11-07T05:06:17.596Z,23.32
2018-11-07T05:08:47.018Z,23.32
2018-11-07T05:11:16.220Z,23.32
2018-11-07T05:13:45.408Z,23.15
2018-11-07T05:16:14.619Z,23.28
2018-11-07T05:18:44.117Z,23.31
2018-11-07T05:21:13.915Z,23.32
2018-11-07T05:23:43.439Z,23.30
2018-11-07T05:26:12.720Z,23.29
2018-11-07T05:28:41.778Z,23.27
2018-11-07T05:31:10.926Z,23.29
2018-11-07T05:33:40.111Z,23.28
2018-11-07T05:36:09.912Z,23.27
2018-11-07T05:38:39.064Z,23.28
2018-11-07T05:41:08.601Z,23.22
2018-11-07T05:43:37.770Z,23.24
2018-11-07T05:46:07.702Z,23.24
2018-11-07T05:48:36.738Z,23.23
2018-11-07T05:51:06.541Z,23.22
2018-11-07T05:53:35.824Z,23.24
2018-11-07T05:56:04.964Z,23.27
2018-11-07T05:58:34.035Z,23.27
2018-11-07T06:01:03.185Z,23.19
2018-11-07T06:03:32.335Z,23.17
2018-11-07T06:06:01.534Z,23.25
2018-11-07T06:08:30.930Z,23.19
2018-11-07T06:11:00.034Z,23.18
2018-11-07T06:13:29.128Z,23.13
2018-11-07T06:15:58.258Z,23.18
2018-11-07T06:18:27.387Z,23.22
2018-11-07T06:20:56.550Z,23.25
2018-11-07T06:23:25.708Z,23.16
2018-11-07T06:25:55.179Z,23.20
2018-11-07T06:28:24.410Z,23.18
2018-11-07T06:30:53.609Z,23.22
2018-11-07T06:33:22.849Z,23.25
2018-11-07T06:35:52.401Z,23.18
2018-11-07T06:38:22.351Z,23.20
2018-11-07T06:40:51.457Z,23.19
2018-11-07T06:43:20.617Z,23.19
2018-11-07T06:45:49.725Z,23.19
2018-11-07T06:48:18.830Z,23.18
2018-11-07T06:50:47.961Z,23.19
2018-11-07T06:53:17.141Z,23.19
2018-11-07T06:55:46.289Z,23.19
2018-11-07T06:58:15.419Z,23.18
2018-11-07T07:00:44.633Z,23.16
2018-11-07T07:03:13.719Z,23.12
2018-11-07T07:05:43.015Z,23.07
2018-11-07T07:08:12.134Z,23.15
2018-11-07T07:10:41.206Z,23.17
2018-11-07T07:13:10.366Z,23.18
2018-11-07T07:15:39.511Z,23.17
2018-11-07T07:18:09.093Z,23.16
2018-11-07T07:20:38.237Z,23.15
2018-11-07T07:23:07.394Z,23.18
2018-11-07T07:25:36.571Z,23.16
2018-11-07T07:28:06.078Z,23.17
2018-11-07T07:30:35.280Z,23.18
2018-11-07T07:33:04.393Z,23.15
2018-11-07T07:35:33.509Z,23.16
2018-11-07T07:38:02.634Z,23.14
2018-11-07T07:40:31.799Z,23.08
2018-11-07T07:43:00.865Z,23.05
2018-11-07T07:45:30.104Z,23.11
2018-11-07T07:47:59.280Z,23.14
2018-11-07T07:50:28.425Z,23.13
2018-11-07T07:52:57.592Z,23.17
2018-11-07T07:55:26.685Z,23.15
2018-11-07T07:57:55.807Z,23.16
2018-11-07T08:00:24.868Z,23.16
2018-11-07T08:02:54.246Z,23.06
2018-11-07T08:05:23.338Z,23.11
2018-11-07T08:07:52.483Z,23.11
2018-11-07T08:10:22.350Z,23.17
2018-11-07T08:12:52.020Z,23.19
2018-11-07T08:15:21.197Z,23.19
2018-11-07T08:17:50.492Z,23.18
2018-11-07T08:20:19.737Z,23.19
2018-11-07T08:22:49.454Z,23.19
2018-11-07T08:25:19.025Z,23.16
2018-11-07T08:27:48.199Z,23.15
2018-11-07T08:30:19.101Z,23.15
2018-11-07T08:35:48.221Z,23.16
2018-11-07T08:38:17.366Z,23.06
2018-11-07T08:40:46.584Z,23.09
2018-11-07T08:43:15.686Z,23.14
2018-11-07T08:45:44.770Z,23.17
2018-11-07T08:48:13.919Z,23.17
2018-11-07T08:50:42.850Z,23.13
2018-11-07T08:53:11.990Z,23.16
2018-11-07T08:55:41.251Z,23.19
2018-11-07T08:58:10.345Z,23.12
2018-11-07T09:00:39.414Z,23.12
2018-11-07T09:03:08.507Z,23.08
2018-11-07T09:05:37.634Z,23.08
2018-11-07T09:08:06.686Z,23.11
2018-11-07T09:10:35.826Z,23.11
2018-11-07T09:13:04.909Z,23.08
2018-11-07T09:15:34.053Z,23.08
2018-11-07T09:18:03.119Z,23.12
2018-11-07T09:20:32.202Z,23.13
2018-11-07T09:23:01.354Z,23.15
2018-11-07T09:25:30.494Z,23.18
2018-11-07T09:27:59.585Z,23.21
2018-11-07T09:30:28.708Z,23.22
2018-11-07T09:32:57.818Z,23.24
2018-11-07T09:35:27.001Z,23.26
2018-11-07T09:37:56.135Z,23.28
2018-11-07T09:40:25.375Z,23.35
2018-11-07T09:42:54.475Z,23.33
2018-11-07T09:45:23.906Z,23.35
2018-11-07T09:47:52.963Z,23.35
2018-11-07T09:50:22.166Z,23.37
2018-11-07T09:52:51.317Z,23.32
2018-11-07T09:55:21.291Z,23.31
2018-11-07T09:57:50.381Z,23.30
2018-11-07T10:00:21.145Z,23.31
2018-11-07T10:02:50.594Z,23.35
2018-11-07T10:05:20.794Z,23.35
2018-11-07T10:07:50.011Z,23.34
2018-11-07T10:10:21.351Z,23.38
2018-11-07T10:12:50.795Z,23.38
2018-11-07T10:15:20.141Z,23.37
2018-11-07T10:17:49.647Z,23.36
2018-11-07T10:20:20.124Z,23.35
2018-11-07T10:22:49.596Z,23.34
2018-11-07T10:25:18.986Z,23.32
2018-11-07T10:27:48.471Z,23.40
2018-11-07T10:30:18.889Z,23.39
2018-11-07T10:32:48.862Z,23.38
2018-11-07T10:35:18.032Z,23.37
2018-11-07T10:37:47.179Z,23.41
2018-11-07T10:40:19.726Z,23.40
2018-11-07T10:42:49.169Z,23.36
2018-11-07T10:45:18.349Z,23.39
2018-11-07T10:47:48.156Z,23.37
2018-11-07T10:50:18.276Z,23.41
2018-11-07T10:52:47.861Z,23.39
2018-11-07T10:55:17.590Z,23.41
2018-11-07T10:57:46.773Z,23.40
2018-11-07T11:00:21.378Z,23.41
2018-11-07T11:02:55.548Z,23.43
2018-11-07T11:05:24.674Z,23.40
2018-11-07T11:07:54.039Z,23.38
2018-11-07T11:10:23.261Z,23.41
2018-11-07T11:12:52.428Z,23.40
2018-11-07T11:15:21.573Z,23.42
2018-11-07T11:17:50.631Z,23.39
2018-11-07T11:20:19.756Z,23.42
2018-11-07T11:22:48.897Z,23.43
2018-11-07T11:25:18.107Z,23.43
2018-11-07T11:27:47.274Z,23.44
2018-11-07T11:30:16.535Z,23.45
2018-11-07T11:32:45.579Z,23.46
2018-11-07T11:35:14.956Z,23.46
2018-11-07T11:37:43.991Z,23.49
2018-11-07T11:40:14.253Z,23.45
2018-11-07T11:42:44.367Z,23.45
2018-11-07T11:45:14.681Z,23.46
2018-11-07T11:47:44.250Z,23.46
2018-11-07T11:50:15.098Z,23.41
2018-11-07T11:52:45.206Z,23.43
2018-11-07T11:55:14.335Z,23.43
2018-11-07T11:57:44.026Z,23.46
2018-11-07T12:00:16.171Z,23.48
2018-11-07T12:02:45.741Z,23.46
2018-11-07T12:05:15.777Z,23.49
2018-11-07T12:07:44.863Z,23.48
2018-11-07T12:10:21.090Z,23.47
2018-11-07T12:12:54.441Z,23.51
2018-11-07T12:15:24.751Z,23.49
2018-11-07T12:17:54.304Z,23.50
2018-11-07T12:20:23.619Z,23.50
2018-11-07T12:22:52.909Z,23.57
2018-11-07T12:25:22.589Z,23.64
2018-11-07T12:27:51.669Z,23.65
2018-11-07T12:30:22.024Z,23.67
2018-11-07T12:32:52.315Z,23.67
2018-11-07T12:35:22.109Z,23.65
2018-11-07T12:37:51.269Z,23.65
2018-11-07T12:40:20.795Z,23.65
2018-11-07T12:42:50.043Z,23.66
2018-11-07T12:45:19.267Z,23.62
2018-11-07T12:47:48.552Z,23.64
2018-11-07T12:50:20.112Z,23.64
2018-11-07T12:52:49.262Z,23.64
2018-11-07T12:55:19.113Z,23.64
2018-11-07T12:57:48.292Z,23.70
2018-11-07T13:00:20.708Z,23.60
2018-11-07T13:02:49.708Z,23.65
2018-11-07T13:05:19.702Z,23.64
2018-11-07T13:07:49.387Z,23.65
2018-11-07T13:10:19.721Z,23.64
2018-11-07T13:12:49.970Z,23.62
2018-11-07T13:15:19.551Z,23.61
2018-11-07T13:17:49.538Z,23.58
2018-11-07T13:20:20.214Z,23.63
2018-11-07T13:22:50.612Z,23.72
2018-11-07T13:25:19.959Z,23.63
2018-11-07T13:27:49.161Z,23.63
2018-11-07T13:30:19.531Z,23.63
2018-11-07T13:32:48.716Z,23.63
2018-11-07T13:35:18.755Z,23.62
2018-11-07T13:37:48.719Z,23.63
2018-11-07T13:40:19.433Z,23.62
2018-11-07T13:42:48.655Z,23.63
2018-11-07T13:45:19.385Z,23.63
2018-11-07T13:47:49.526Z,23.62
2018-11-07T13:50:18.955Z,23.62
2018-11-07T13:52:48.206Z,23.58
2018-11-07T13:55:17.396Z,23.57
2018-11-07T13:57:46.793Z,23.54
2018-11-07T14:00:21.553Z,23.52
2018-11-07T14:02:51.289Z,23.56
2018-11-07T14:05:20.522Z,23.56
2018-11-07T14:07:49.665Z,23.57
2018-11-07T14:10:19.695Z,23.58
2018-11-07T14:12:49.153Z,23.56
2018-11-07T14:15:18.266Z,23.60
2018-11-07T14:17:47.623Z,23.58
2018-11-07T14:20:16.747Z,23.54
2018-11-07T14:22:45.843Z,23.56
2018-11-07T14:25:15.198Z,23.53
2018-11-07T14:27:44.525Z,23.51
2018-11-07T14:30:16.488Z,23.47
2018-11-07T14:32:51.621Z,23.46
2018-11-07T14:35:20.927Z,23.44
2018-11-07T14:37:50.202Z,23.46
2018-11-07T14:40:19.441Z,23.44
2018-11-07T14:42:48.567Z,23.48
2018-11-07T14:45:17.667Z,23.47
2018-11-07T14:47:46.801Z,23.48
2018-11-07T14:50:15.859Z,23.44
2018-11-07T14:52:44.935Z,23.44
2018-11-07T14:55:14.353Z,23.40
2018-11-07T14:57:43.870Z,23.45
2018-11-07T15:00:15.355Z,23.46
2018-11-07T15:02:45.634Z,23.54
2018-11-07T15:05:15.650Z,23.58
2018-11-07T15:07:45.318Z,23.63
2018-11-07T15:10:15.423Z,23.51
2018-11-07T15:12:44.701Z,23.54
2018-11-07T15:15:15.948Z,23.59
2018-11-07T15:17:45.092Z,23.62
2018-11-07T15:20:15.190Z,23.60
2018-11-07T15:22:44.413Z,23.61
2018-11-07T15:25:14.739Z,23.61
2018-11-07T15:27:44.874Z,23.61
2018-11-07T15:30:14.994Z,23.60
2018-11-07T15:32:44.566Z,23.34
2018-11-07T15:35:13.983Z,23.41
2018-11-07T15:37:43.287Z,23.34
2018-11-07T15:40:13.937Z,23.36
2018-11-07T15:42:43.627Z,23.38
2018-11-07T15:45:15.797Z,23.34
2018-11-07T15:47:45.109Z,23.31
2018-11-07T15:50:19.474Z,23.34
2018-11-07T15:52:48.975Z,23.39
2018-11-07T15:55:18.473Z,23.37
2018-11-07T15:57:48.028Z,23.38
2018-11-07T16:00:18.149Z,23.37
2018-11-07T16:02:47.372Z,23.34
2018-11-07T16:05:17.081Z,23.34
2018-11-07T16:07:46.221Z,23.30
2018-11-07T16:10:16.123Z,23.30
2018-11-07T16:12:45.266Z,23.32
2018-11-07T16:15:15.995Z,23.31
2018-11-07T16:17:45.306Z,23.31
2018-11-07T16:20:16.072Z,23.30
2018-11-07T16:22:46.036Z,23.31
2018-11-07T16:25:15.420Z,23.31
2018-11-07T16:27:45.031Z,23.30
2018-11-07T16:30:16.483Z,23.34
2018-11-07T16:32:45.617Z,23.30
2018-11-07T16:35:15.130Z,23.26
2018-11-07T16:37:44.568Z,23.27
2018-11-07T16:40:15.131Z,23.40
2018-11-07T16:42:44.791Z,23.41
2018-11-07T16:45:14.980Z,23.44
2018-11-07T16:47:44.463Z,23.45
2018-11-07T16:50:14.649Z,23.46
2018-11-07T16:52:43.930Z,23.44
2018-11-07T16:55:13.465Z,23.30
2018-11-07T16:57:43.401Z,23.17
2018-11-07T17:00:15.092Z,23.28
2018-11-07T17:02:44.909Z,23.30
2018-11-07T17:05:14.712Z,23.28
2018-11-07T17:07:44.083Z,23.28
2018-11-07T17:10:13.629Z,23.33
2018-11-07T17:12:43.128Z,23.37
2018-11-07T17:15:12.437Z,23.30
2018-11-07T17:17:41.638Z,23.32
2018-11-07T17:20:12.399Z,23.31
2018-11-07T17:22:41.849Z,23.33
2018-11-07T17:25:13.187Z,23.32
2018-11-07T17:27:43.691Z,23.36
2018-11-07T17:30:13.595Z,23.34
2018-11-07T17:32:43.050Z,23.32
2018-11-07T17:35:14.585Z,23.33
2018-11-07T17:37:44.268Z,23.34
2018-11-07T17:40:15.542Z,23.37
2018-11-07T17:42:45.632Z,23.42
2018-11-07T17:45:16.360Z,23.38
2018-11-07T17:47:45.913Z,23.35
2018-11-07T17:50:16.712Z,23.34
2018-11-07T17:52:45.873Z,23.34
2018-11-07T17:55:16.059Z,23.33
2018-11-07T17:57:45.339Z,23.39
2018-11-07T18:00:18.888Z,23.36
2018-11-07T18:02:48.087Z,23.33
2018-11-07T18:05:17.852Z,23.33
2018-11-07T18:07:47.066Z,23.27
2018-11-07T18:10:17.694Z,23.24
2018-11-07T18:12:47.345Z,23.26
2018-11-07T18:15:18.058Z,23.28
2018-11-07T18:17:47.279Z,23.29
2018-11-07T18:20:17.305Z,23.27
2018-11-07T18:22:46.524Z,23.33
2018-11-07T18:25:16.505Z,23.32
2018-11-07T18:27:45.681Z,23.35
2018-11-07T18:30:16.078Z,23.37
2018-11-07T18:32:46.078Z,23.34
2018-11-07T18:35:17.727Z,23.31
2018-11-07T18:37:47.210Z,23.30
2018-11-07T18:40:18.330Z,23.33
2018-11-07T18:42:48.877Z,23.27
2018-11-07T18:45:18.506Z,23.34
2018-11-07T18:47:48.033Z,23.28
2018-11-07T18:50:19.258Z,23.35
2018-11-07T18:52:49.370Z,23.40
2018-11-07T18:55:18.866Z,23.41
2018-11-07T18:57:48.224Z,23.43
2018-11-07T19:00:18.771Z,23.40
2018-11-07T19:02:48.768Z,23.42
2018-11-07T19:05:18.186Z,23.36
2018-11-07T19:07:48.615Z,23.37
2018-11-07T19:10:19.942Z,23.40
2018-11-07T19:12:50.941Z,23.40
2018-11-07T19:15:20.713Z,23.37
2018-11-07T19:17:51.022Z,23.39
2018-11-07T19:20:20.568Z,23.37
2018-11-07T19:22:49.759Z,23.40
2018-11-07T19:25:20.201Z,23.40
2018-11-07T19:27:49.727Z,23.42
2018-11-07T19:30:20.945Z,23.40
2018-11-07T19:32:51.977Z,23.45
2018-11-07T19:35:21.621Z,23.47
2018-11-07T19:37:51.337Z,23.48
2018-11-07T19:40:24.059Z,23.58
2018-11-07T19:42:53.246Z,23.59
2018-11-07T19:45:23.209Z,23.57
2018-11-07T19:47:52.626Z,23.63
2018-11-07T19:50:22.286Z,23.62
2018-11-07T19:52:52.325Z,23.65
2018-11-07T19:55:23.378Z,23.69
2018-11-07T19:57:57.365Z,23.67
2018-11-07T20:00:26.641Z,23.70
2018-11-07T20:02:56.291Z,23.68
2018-11-07T20:05:25.921Z,23.71
2018-11-07T20:07:55.472Z,23.71
2018-11-07T20:10:55.583Z,23.64
2018-11-07T20:13:24.942Z,23.63
2018-11-07T20:15:54.550Z,23.64
2018-11-07T20:18:23.737Z,23.65
2018-11-07T20:20:52.871Z,23.66
2018-11-07T20:23:22.092Z,23.67
2018-11-07T20:25:51.496Z,23.67
2018-11-07T20:28:20.700Z,23.71
2018-11-07T20:30:50.701Z,23.71
2018-11-07T20:33:19.866Z,23.71
2018-11-07T20:35:49.278Z,23.54
2018-11-07T20:38:18.256Z,23.74
2018-11-07T20:40:47.457Z,23.74
2018-11-07T20:43:16.680Z,23.71
2018-11-07T20:45:46.034Z,23.54
2018-11-07T20:48:15.211Z,23.61
2018-11-07T20:50:44.376Z,23.58
2018-11-07T20:53:13.593Z,23.63
2018-11-07T20:55:43.207Z,23.67
2018-11-07T20:58:12.935Z,23.74
2018-11-07T21:00:42.383Z,23.78
2018-11-07T21:03:11.726Z,23.69
2018-11-07T21:05:41.117Z,23.68
2018-11-07T21:08:10.570Z,23.63
2018-11-07T21:10:39.817Z,23.63
2018-11-07T21:13:09.138Z,23.54
2018-11-07T21:15:38.441Z,23.58
2018-11-07T21:18:07.620Z,23.61
2018-11-07T21:20:36.845Z,23.60
2018-11-07T21:23:06.295Z,23.61
2018-11-07T21:25:35.366Z,23.56
2018-11-07T21:28:04.484Z,23.54
2018-11-07T21:30:33.557Z,23.53
2018-11-07T21:33:02.823Z,23.54
2018-11-07T21:35:32.292Z,23.54
2018-11-07T21:38:01.506Z,23.55
2018-11-07T21:40:30.707Z,23.54
2018-11-07T21:42:59.821Z,23.51
2018-11-07T21:45:28.991Z,23.54
2018-11-07T21:47:58.213Z,23.52
2018-11-07T21:50:27.416Z,23.50
2018-11-07T21:52:56.624Z,23.49
2018-11-07T21:55:25.899Z,23.47
2018-11-07T21:57:55.041Z,23.48
2018-11-07T22:00:24.600Z,23.50
2018-11-07T22:02:53.731Z,23.49
2018-11-07T22:05:23.265Z,23.49
2018-11-07T22:07:52.312Z,23.48
2018-11-07T22:10:21.394Z,23.45
2018-11-07T22:12:50.456Z,23.50
2018-11-07T22:15:19.557Z,23.50
2018-11-07T22:17:48.648Z,23.47
2018-11-07T22:20:19.740Z,23.47
2018-11-07T22:22:48.818Z,23.47
2018-11-07T22:25:17.920Z,23.47
2018-11-07T22:27:47.102Z,23.45
2018-11-07T22:30:17.180Z,23.46
2018-11-07T22:32:46.465Z,23.46
2018-11-07T22:35:17.015Z,23.46
2018-11-07T22:37:46.711Z,23.46
2018-11-07T22:40:17.308Z,23.42
2018-11-07T22:42:47.442Z,23.36
2018-11-07T22:45:16.698Z,23.34
2018-11-07T22:47:46.229Z,23.29
2018-11-07T22:50:16.089Z,23.26
2018-11-07T22:52:45.754Z,23.25
2018-11-07T22:55:15.055Z,23.24
2018-11-07T22:57:44.187Z,23.27
2018-11-07T23:00:18.718Z,23.27
2018-11-07T23:02:48.390Z,23.33
2018-11-07T23:05:18.069Z,23.35
2018-11-07T23:07:47.435Z,23.34
2018-11-07T23:10:16.424Z,23.30
2018-11-07T23:12:45.715Z,23.31
2018-11-07T23:15:20.886Z,23.33
2018-11-07T23:17:50.583Z,23.31
2018-11-07T23:20:19.872Z,23.31
2018-11-07T23:22:49.032Z,23.30
2018-11-07T23:25:18.330Z,23.33
2018-11-07T23:27:47.592Z,23.34
2018-11-07T23:30:16.756Z,23.30
2018-11-07T23:32:46.009Z,23.30
2018-11-07T23:35:15.189Z,23.32
2018-11-07T23:37:44.326Z,23.35
2018-11-07T23:40:13.797Z,23.36
2018-11-07T23:42:43.290Z,23.38
2018-11-07T23:45:12.445Z,23.39
2018-11-07T23:47:41.528Z,23.39
2018-11-07T23:50:10.660Z,23.40
2018-11-07T23:52:45.157Z,23.40
2018-11-07T23:55:14.255Z,23.39
2018-11-07T23:57:43.369Z,23.39
